Springfield Branson National Airport Springfield US
ICAO: KSGF
IATA: SGF
Category: Large
Scheduled Services: Yes

Elevation: 1268 ft
TransAlt. 18000 ft.

Airport Communications:
APP/DEP:124.95
ATIS:119.05
CLNC DEL:123.675
GND:121.9
ARNG OPS:134.95
COLUMBIA RDO:122.55
TWR:119.9
UNICOM:122.95

KSGF Zoom In..

If you have problems with the map follow the link
https://www.worldairports.se/pages/airport.php?
ICAO=KSGF

Runways:

(A) RW 02 length 7003 ft width 150 ft
ILS 109.90 / hdg 19

(B) RW 14 length 8000 ft width 150 ft
ILS 109.70 / hdg 139

(C) RW 20 length 7003 ft width 150 ft
---- / hdg 199

(D) RW 32 length 8000 ft width 150 ft
---- / hdg 319

Location; KSGF
Day. 05 / Time. 20.52 Zulu
* Altimeter: 29.87
* Temperature: 15° c. 59°f.
* Wind from: 150° Speed 12 kn.
Dewpoint: 02° c.
Visibility: 10 Statute Miles.
Clouds: Few 8000 ft.
Clouds: Broken 1000 ft.
Clouds: Overcast 11000 ft.

KSGF 052052Z 15012KT 10SM FEW080 BKN100 OVC110 15/02 A2987 RMK AO2 SLP116 T01500017 56026


Wind From 150°
Speed 12 kn.

 
 
jpsmedia worldairports.se 2019   terms of use